Pagrindinis puslapis
METAR-TAF:

METAR-TAF

Oro uostai :

Lancaster Airport

Lancaster, Pensilvanija, Jungtinės Amerikos Valstijos

platuma: 40-07-13N, ilguma: 076-17-40W, Aukštis: 123 m

Dabartinis oras

Ataskaita buvo paskelbta 27 minutes, ne 06:53 UTC
Vėjas 11 kt iš Vakarų
Temperatūra -2°C
Drėgmė 50%
Slėgis 1012 hPa
Matomumas: 16.1 km
Mažai debesys ne aukštis 6000 ft

METAR: KLNS 280653Z AUTO 27011KT 10SM FEW060 M02/M11 A2989 RMK AO2 PK WND 30033/0559 SLP126 T10171106

Laikas: 02:20 (07:20 UTC)

Prognozė

Ataskaita buvo paskelbta 1 valandą ir 40 minutes, ne 05:40 UTC
Prognozė galioja nuo 28 metu 06 UTC su 29 metu 06 UTC
Vėjas 10 kt iš Vakarų su gūsio iki 15 kt
Matomumas: 10 km
Su prošvaistėmis ne aukštis 6000 ft
Nuo 28 metu 1500 UTC
Vėjas 15 kt iš Vakarų su gūsio iki 25 kt
Matomumas: 10 km
Išsisklaidę debesys ne aukštis 5000 ft
Nuo 28 metu 2300 UTC
Vėjas 10 kt iš Vakarų/Šiaurės Vakarų
Matomumas: 10 km
Išsisklaidę debesys ne aukštis 5000 ft

TAF: KLNS 280540Z 2806/2906 26010G15KT P6SM BKN060 FM281500 27015G25KT P6SM SCT050 FM282300 29010KT P6SM SCT050

Orai ataskaitas ir orų prognozės (METAR, TAF).

turimą stotys yra geltonos ir raudonos taškus žemėlapyje.

Perkelti pele per norėdami pamatyti stoties vardą.

Tada spustelėkite, norėdami matyti oro stebėjimo ir prognozės.

Norėdami pakeisti žemėlapį: spustelėkite ant žalios mygtukų su juodo kryžiaus žemyn,; žalią mygtuką su brūkšneliu, jei norite nutolinti; arba žalių rodyklių gretimoms žemėlapius.


METAR-TAF: